MSC Giovanna — 3FRB9 — position and weather

sailwx.info

Track history (hours):
 
Tides and Currents Weather Stations Pressure Air Temp Water Temp Dewpoint Dewpoint Depression Visibility Wind Speed Wind Dir Waves Ship Positions

MSC Giovanna

Last reported at 2016-Apr-29 21:23 UTC. Time now 2016-Apr-30 07:11 UTC.
Position N 39°51' E 025°52'.

Length 178 m; draft 7.8 m.

Type: Ship. MMSI: 357702000.

Date/timePositionNaut miles runAvg speedWind from/ knotsBaromVisibWave heightAir tempDewpointWater temp
2016-Apr-29 21:23N 39°51' E 025°52'1513.9
2016-Apr-29 20:18N 39°37' E 025°47'11514.5
2016-Apr-29 12:20N 37°41' E 025°50'1214.8
2016-Apr-29 11:33N 37°30' E 025°52'1715.1
2016-Apr-29 10:26N 37°14' E 026°01'1814.9
2016-Apr-29 09:14N 36°58' E 026°12'1114.9
2016-Apr-29 08:31N 36°50' E 026°21'  
2016-Apr-26 12:31N 32°49' E 033°20'1414.0
2016-Apr-26 11:32N 32°54' E 033°35'2913.5
2016-Apr-26 09:22N 33°01' E 034°09'1214.3
2016-Apr-26 08:33N 32°58' E 034°23'1714.4
2016-Apr-26 07:23N 32°55' E 034°42'1214.6
2016-Apr-26 06:33N 32°52' E 034°56'5 5.0
2016-Apr-26 05:32N 32°49' E 035°01'0 0.0
2016-Apr-26 04:25N 32°49' E 035°01'0 0.0
2016-Apr-26 03:31N 32°49' E 035°01'0 0.0
2016-Apr-26 02:32N 32°49' E 035°01'0 0.0
2016-Apr-26 01:33N 32°49' E 035°01'0 0.0
2016-Apr-26 00:31N 32°49' E 035°01'0 0.0
2016-Apr-25 23:31N 32°49' E 035°01'0 0.0
2016-Apr-25 22:32N 32°49' E 035°01'0 0.0
2016-Apr-25 21:31N 32°49' E 035°01'0 0.0
2016-Apr-25 20:26N 32°49' E 035°01'0 0.0
2016-Apr-25 19:29N 32°49' E 035°01'0 0.0
2016-Apr-25 18:33N 32°49' E 035°01'4 3.9
2016-Apr-25 17:33N 32°52' E 034°58'1010.4
2016-Apr-25 16:34N 32°45' E 034°48'1414.2
2016-Apr-25 15:33N 32°32' E 034°43'1414.1
2016-Apr-25 14:33N 32°18' E 034°38'1414.0
2016-Apr-25 13:33N 32°05' E 034°33'1313.1
2016-Apr-25 12:34N 31°52' E 034°29'9 9.0
2016-Apr-25 11:33N 31°49' E 034°39'0 0.0
2016-Apr-24 18:32N 31°49' E 034°39'0 0.0
2016-Apr-24 17:31N 31°49' E 034°39'0 0.0
2016-Apr-24 16:14N 31°49' E 034°39'0 0.0
2016-Apr-24 15:33N 31°49' E 034°39'0 0.0
2016-Apr-24 14:26N 31°49' E 034°39'0 0.0
2016-Apr-24 13:34N 31°49' E 034°39'0 0.0
2016-Apr-24 12:33N 31°49' E 034°39'0 0.0
2016-Apr-24 11:33N 31°49' E 034°39'0 0.0
2016-Apr-24 10:33N 31°49' E 034°39'0 0.0
2016-Apr-24 09:33N 31°49' E 034°39'0 0.0
2016-Apr-24 08:33N 31°49' E 034°39'0 0.0
2016-Apr-24 07:29N 31°49' E 034°39'0 0.0
2016-Apr-24 06:22N 31°49' E 034°39'0 0.0
2016-Apr-24 05:32N 31°49' E 034°39'0 0.0
2016-Apr-24 04:27N 31°49' E 034°39'4 1.0
2016-Apr-24 00:32N 31°52' E 034°35'2 2.0
2016-Apr-23 23:33N 31°51' E 034°33'0 0.1
2016-Apr-23 22:08N 31°51' E 034°33'0 0.2
2016-Apr-23 21:33N 31°51' E 034°33'1 0.6
2016-Apr-23 20:33N 31°52' E 034°32'1211.7
2016-Apr-23 19:33N 31°56' E 034°20'1313.4
2016-Apr-23 18:34N 32°04' E 034°06'1514.9
2016-Apr-23 17:34N 32°18' E 034°09'1515.1
2016-Apr-23 16:34N 32°33' E 034°11'1515.2
2016-Apr-23 15:34N 32°48' E 034°14'1515.2
2016-Apr-23 14:33N 33°03' E 034°16'1514.9
2016-Apr-23 13:34N 33°18' E 034°19'1514.5
2016-Apr-23 12:33N 33°32' E 034°21'1514.7
2016-Apr-23 11:33N 33°47' E 034°24'1514.8
2016-Apr-23 10:33N 34°02' E 034°26'1414.5
2016-Apr-23 09:33N 34°16' E 034°29'1414.3
2016-Apr-23 08:33N 34°30' E 034°31'1414.5
2016-Apr-23 07:34N 34°45' E 034°34'1514.5
2016-Apr-23 06:33N 34°59' E 034°36'1514.7
2016-Apr-23 05:33N 35°14' E 034°38'1515.4
2016-Apr-23 04:34N 35°29' E 034°41'1515.2
2016-Apr-23 03:33N 35°44' E 034°44'1514.6
2016-Apr-23 02:33N 35°58' E 034°42'1514.9
2016-Apr-23 01:34N 36°13' E 034°42'1514.6
2016-Apr-23 00:34N 36°28' E 034°40'1514.5
2016-Apr-22 23:33N 36°42' E 034°40'40610.1
2016-Apr-21 07:26N 36°57' E 026°14'3116.2
2016-Apr-21 05:30N 37°25' E 025°56'133 5.3
2016-Apr-20 04:31N 39°37' E 025°46'1615.9
2016-Apr-20 03:31N 39°53' E 025°50'1615.2
2016-Apr-20 02:30N 40°01' E 026°07'  
Track history (hours):
 
Tides and Currents Weather Stations Pressure Air Temp Water Temp Dewpoint Dewpoint Depression Visibility Wind Speed Wind Dir Waves Ship Positions

MSC Giovanna

Last reported at 2016-Apr-29 21:23 UTC. Time now 2016-Apr-30 07:11 UTC.
Position N 39°51' E 025°52'.

Length 178 m; draft 7.8 m.

Type: Ship. MMSI: 357702000.

Date/timePositionNaut miles runAvg speedWind from/ knotsBaromVisibWave heightAir tempDewpointWater temp
2016-Apr-29 21:23N 39°51' E 025°52'1513.9
2016-Apr-29 20:18N 39°37' E 025°47'11514.5
2016-Apr-29 12:20N 37°41' E 025°50'1214.8
2016-Apr-29 11:33N 37°30' E 025°52'1715.1
2016-Apr-29 10:26N 37°14' E 026°01'1814.9
2016-Apr-29 09:14N 36°58' E 026°12'1114.9
2016-Apr-29 08:31N 36°50' E 026°21'  
2016-Apr-26 12:31N 32°49' E 033°20'1414.0
2016-Apr-26 11:32N 32°54' E 033°35'2913.5
2016-Apr-26 09:22N 33°01' E 034°09'1214.3
2016-Apr-26 08:33N 32°58' E 034°23'1714.4
2016-Apr-26 07:23N 32°55' E 034°42'1214.6
2016-Apr-26 06:33N 32°52' E 034°56'5 5.0
2016-Apr-26 05:32N 32°49' E 035°01'0 0.0
2016-Apr-26 04:25N 32°49' E 035°01'0 0.0
2016-Apr-26 03:31N 32°49' E 035°01'0 0.0
2016-Apr-26 02:32N 32°49' E 035°01'0 0.0
2016-Apr-26 01:33N 32°49' E 035°01'0 0.0
2016-Apr-26 00:31N 32°49' E 035°01'0 0.0
2016-Apr-25 23:31N 32°49' E 035°01'0 0.0
2016-Apr-25 22:32N 32°49' E 035°01'0 0.0
2016-Apr-25 21:31N 32°49' E 035°01'0 0.0
2016-Apr-25 20:26N 32°49' E 035°01'0 0.0
2016-Apr-25 19:29N 32°49' E 035°01'0 0.0
2016-Apr-25 18:33N 32°49' E 035°01'4 3.9
2016-Apr-25 17:33N 32°52' E 034°58'1010.4
2016-Apr-25 16:34N 32°45' E 034°48'1414.2
2016-Apr-25 15:33N 32°32' E 034°43'1414.1
2016-Apr-25 14:33N 32°18' E 034°38'1414.0
2016-Apr-25 13:33N 32°05' E 034°33'1313.1
2016-Apr-25 12:34N 31°52' E 034°29'9 9.0
2016-Apr-25 11:33N 31°49' E 034°39'0 0.0
2016-Apr-24 18:32N 31°49' E 034°39'0 0.0
2016-Apr-24 17:31N 31°49' E 034°39'0 0.0
2016-Apr-24 16:14N 31°49' E 034°39'0 0.0
2016-Apr-24 15:33N 31°49' E 034°39'0 0.0
2016-Apr-24 14:26N 31°49' E 034°39'0 0.0
2016-Apr-24 13:34N 31°49' E 034°39'0 0.0
2016-Apr-24 12:33N 31°49' E 034°39'0 0.0
2016-Apr-24 11:33N 31°49' E 034°39'0 0.0
2016-Apr-24 10:33N 31°49' E 034°39'0 0.0
2016-Apr-24 09:33N 31°49' E 034°39'0 0.0
2016-Apr-24 08:33N 31°49' E 034°39'0 0.0
2016-Apr-24 07:29N 31°49' E 034°39'0 0.0
2016-Apr-24 06:22N 31°49' E 034°39'0 0.0
2016-Apr-24 05:32N 31°49' E 034°39'0 0.0
2016-Apr-24 04:27N 31°49' E 034°39'4 1.0
2016-Apr-24 00:32N 31°52' E 034°35'2 2.0
2016-Apr-23 23:33N 31°51' E 034°33'0 0.1
2016-Apr-23 22:08N 31°51' E 034°33'0 0.2
2016-Apr-23 21:33N 31°51' E 034°33'1 0.6
2016-Apr-23 20:33N 31°52' E 034°32'1211.7
2016-Apr-23 19:33N 31°56' E 034°20'1313.4
2016-Apr-23 18:34N 32°04' E 034°06'1514.9
2016-Apr-23 17:34N 32°18' E 034°09'1515.1
2016-Apr-23 16:34N 32°33' E 034°11'1515.2
2016-Apr-23 15:34N 32°48' E 034°14'1515.2
2016-Apr-23 14:33N 33°03' E 034°16'1514.9
2016-Apr-23 13:34N 33°18' E 034°19'1514.5
2016-Apr-23 12:33N 33°32' E 034°21'1514.7
2016-Apr-23 11:33N 33°47' E 034°24'1514.8
2016-Apr-23 10:33N 34°02' E 034°26'1414.5
2016-Apr-23 09:33N 34°16' E 034°29'1414.3
2016-Apr-23 08:33N 34°30' E 034°31'1414.5
2016-Apr-23 07:34N 34°45' E 034°34'1514.5
2016-Apr-23 06:33N 34°59' E 034°36'1514.7
2016-Apr-23 05:33N 35°14' E 034°38'1515.4
2016-Apr-23 04:34N 35°29' E 034°41'1515.2
2016-Apr-23 03:33N 35°44' E 034°44'1514.6
2016-Apr-23 02:33N 35°58' E 034°42'1514.9
2016-Apr-23 01:34N 36°13' E 034°42'1514.6
2016-Apr-23 00:34N 36°28' E 034°40'1514.5
2016-Apr-22 23:33N 36°42' E 034°40'40610.1
2016-Apr-21 07:26N 36°57' E 026°14'3116.2
2016-Apr-21 05:30N 37°25' E 025°56'133 5.3
2016-Apr-20 04:31N 39°37' E 025°46'1615.9
2016-Apr-20 03:31N 39°53' E 025°50'1615.2
2016-Apr-20 02:30N 40°01' E 026°07'  

Dump ship's entire track history